sensor_id;sensor_type;location;lat;lon;timestamp;P1;durP1;ratioP1;P2;durP2;ratioP2
77722;SDS011;67811;42.656;23.394;2024-03-02T00:03:23;13.57;;;8.17;;
77722;SDS011;67811;42.656;23.394;2024-03-02T00:07:29;23.03;;;9.93;;
77722;SDS011;67811;42.656;23.394;2024-03-02T00:11:34;21.13;;;12.10;;
77722;SDS011;67811;42.656;23.394;2024-03-02T00:15:56;15.93;;;10.35;;
77722;SDS011;67811;42.656;23.394;2024-03-02T00:20:01;18.73;;;9.15;;
77722;SDS011;67811;42.656;23.394;2024-03-02T00:24:17;19.60;;;10.00;;
77722;SDS011;67811;42.656;23.394;2024-03-02T00:28:36;24.55;;;12.32;;
77722;SDS011;67811;42.656;23.394;2024-03-02T00:32:42;20.10;;;10.52;;
77722;SDS011;67811;42.656;23.394;2024-03-02T00:36:48;23.23;;;11.98;;
77722;SDS011;67811;42.656;23.394;2024-03-02T00:40:53;22.40;;;12.70;;
77722;SDS011;67811;42.656;23.394;2024-03-02T00:44:59;13.25;;;7.68;;
77722;SDS011;67811;42.656;23.394;2024-03-02T00:49:05;18.43;;;10.13;;
77722;SDS011;67811;42.656;23.394;2024-03-02T00:53:16;19.23;;;9.55;;
77722;SDS011;67811;42.656;23.394;2024-03-02T00:57:27;11.88;;;6.28;;
77722;SDS011;67811;42.656;23.394;2024-03-02T01:01:37;15.38;;;7.57;;
77722;SDS011;67811;42.656;23.394;2024-03-02T01:05:42;20.43;;;10.73;;
77722;SDS011;67811;42.656;23.394;2024-03-02T01:09:48;19.70;;;9.43;;
77722;SDS011;67811;42.656;23.394;2024-03-02T01:13:53;15.97;;;8.40;;
77722;SDS011;67811;42.656;23.394;2024-03-02T01:17:58;17.57;;;9.03;;
77722;SDS011;67811;42.656;23.394;2024-03-02T01:22:04;17.90;;;8.60;;
77722;SDS011;67811;42.656;23.394;2024-03-02T01:26:09;21.67;;;8.20;;
77722;SDS011;67811;42.656;23.394;2024-03-02T01:30:15;21.10;;;11.00;;
77722;SDS011;67811;42.656;23.394;2024-03-02T01:34:20;18.53;;;8.07;;
77722;SDS011;67811;42.656;23.394;2024-03-02T01:38:25;23.30;;;10.17;;
77722;SDS011;67811;42.656;23.394;2024-03-02T01:42:30;21.20;;;10.20;;
77722;SDS011;67811;42.656;23.394;2024-03-02T01:46:36;25.63;;;13.30;;
77722;SDS011;67811;42.656;23.394;2024-03-02T01:50:41;22.45;;;10.93;;
77722;SDS011;67811;42.656;23.394;2024-03-02T01:54:46;22.60;;;11.17;;
77722;SDS011;67811;42.656;23.394;2024-03-02T01:58:51;20.98;;;10.45;;
77722;SDS011;67811;42.656;23.394;2024-03-02T02:02:57;22.23;;;10.97;;
77722;SDS011;67811;42.656;23.394;2024-03-02T02:07:02;24.80;;;13.45;;
77722;SDS011;67811;42.656;23.394;2024-03-02T02:11:08;22.23;;;10.45;;
77722;SDS011;67811;42.656;23.394;2024-03-02T02:15:29;23.77;;;11.17;;
77722;SDS011;67811;42.656;23.394;2024-03-02T02:19:34;23.42;;;10.80;;
77722;SDS011;67811;42.656;23.394;2024-03-02T02:23:39;26.10;;;12.35;;
77722;SDS011;67811;42.656;23.394;2024-03-02T02:27:45;23.07;;;11.67;;
77722;SDS011;67811;42.656;23.394;2024-03-02T02:31:50;23.35;;;12.15;;
77722;SDS011;67811;42.656;23.394;2024-03-02T02:35:55;26.98;;;12.50;;
77722;SDS011;67811;42.656;23.394;2024-03-02T02:40:00;23.80;;;11.23;;
77722;SDS011;67811;42.656;23.394;2024-03-02T02:44:06;12.07;;;6.97;;
77722;SDS011;67811;42.656;23.394;2024-03-02T02:48:11;21.85;;;11.23;;
77722;SDS011;67811;42.656;23.394;2024-03-02T02:52:16;22.90;;;10.93;;
77722;SDS011;67811;42.656;23.394;2024-03-02T02:56:21;22.23;;;13.17;;
77722;SDS011;67811;42.656;23.394;2024-03-02T03:00:27;24.77;;;12.80;;
77722;SDS011;67811;42.656;23.394;2024-03-02T03:04:32;21.45;;;10.70;;
77722;SDS011;67811;42.656;23.394;2024-03-02T03:08:37;27.42;;;12.15;;
77722;SDS011;67811;42.656;23.394;2024-03-02T03:12:43;29.07;;;13.90;;
77722;SDS011;67811;42.656;23.394;2024-03-02T03:16:48;21.77;;;10.53;;
77722;SDS011;67811;42.656;23.394;2024-03-02T03:20:53;23.63;;;11.40;;
77722;SDS011;67811;42.656;23.394;2024-03-02T03:24:58;24.07;;;11.00;;
77722;SDS011;67811;42.656;23.394;2024-03-02T03:29:04;24.13;;;12.77;;
77722;SDS011;67811;42.656;23.394;2024-03-02T03:33:09;24.43;;;11.47;;
77722;SDS011;67811;42.656;23.394;2024-03-02T03:37:14;25.70;;;11.40;;
77722;SDS011;67811;42.656;23.394;2024-03-02T03:41:20;27.00;;;14.50;;
77722;SDS011;67811;42.656;23.394;2024-03-02T03:45:25;21.33;;;9.85;;
77722;SDS011;67811;42.656;23.394;2024-03-02T03:49:30;22.30;;;11.20;;
77722;SDS011;67811;42.656;23.394;2024-03-02T03:53:35;23.10;;;10.77;;
77722;SDS011;67811;42.656;23.394;2024-03-02T03:57:41;25.83;;;13.52;;
77722;SDS011;67811;42.656;23.394;2024-03-02T04:01:46;21.98;;;11.05;;
77722;SDS011;67811;42.656;23.394;2024-03-02T04:05:51;21.93;;;12.00;;
77722;SDS011;67811;42.656;23.394;2024-03-02T04:09:56;23.70;;;11.10;;
77722;SDS011;67811;42.656;23.394;2024-03-02T04:14:02;23.20;;;12.65;;
77722;SDS011;67811;42.656;23.394;2024-03-02T04:18:07;20.03;;;9.70;;
77722;SDS011;67811;42.656;23.394;2024-03-02T04:22:12;20.37;;;11.30;;
77722;SDS011;67811;42.656;23.394;2024-03-02T04:26:17;27.23;;;13.05;;
77722;SDS011;67811;42.656;23.394;2024-03-02T04:30:23;18.38;;;10.20;;
77722;SDS011;67811;42.656;23.394;2024-03-02T04:34:28;24.48;;;11.88;;
77722;SDS011;67811;42.656;23.394;2024-03-02T04:38:33;19.27;;;10.87;;
77722;SDS011;67811;42.656;23.394;2024-03-02T04:42:38;28.90;;;12.77;;
77722;SDS011;67811;42.656;23.394;2024-03-02T04:46:43;22.88;;;10.43;;
77722;SDS011;67811;42.656;23.394;2024-03-02T04:50:49;24.13;;;11.40;;
77722;SDS011;67811;42.656;23.394;2024-03-02T04:54:54;21.05;;;9.85;;
77722;SDS011;67811;42.656;23.394;2024-03-02T04:58:59;26.52;;;11.25;;
77722;SDS011;67811;42.656;23.394;2024-03-02T05:03:04;21.27;;;10.53;;
77722;SDS011;67811;42.656;23.394;2024-03-02T05:07:10;20.58;;;10.35;;
77722;SDS011;67811;42.656;23.394;2024-03-02T05:11:15;22.25;;;10.85;;
77722;SDS011;67811;42.656;23.394;2024-03-02T05:15:20;20.95;;;10.77;;
77722;SDS011;67811;42.656;23.394;2024-03-02T05:19:25;25.27;;;10.53;;
77722;SDS011;67811;42.656;23.394;2024-03-02T05:23:31;19.73;;;10.27;;
77722;SDS011;67811;42.656;23.394;2024-03-02T05:27:36;24.17;;;12.38;;
77722;SDS011;67811;42.656;23.394;2024-03-02T05:31:41;21.57;;;10.43;;
77722;SDS011;67811;42.656;23.394;2024-03-02T05:35:46;26.23;;;13.38;;
77722;SDS011;67811;42.656;23.394;2024-03-02T05:39:52;24.65;;;12.38;;
77722;SDS011;67811;42.656;23.394;2024-03-02T05:43:57;25.07;;;11.83;;
77722;SDS011;67811;42.656;23.394;2024-03-02T05:48:02;28.95;;;12.85;;
77722;SDS011;67811;42.656;23.394;2024-03-02T05:52:07;26.03;;;12.33;;
77722;SDS011;67811;42.656;23.394;2024-03-02T05:56:13;27.58;;;11.80;;
77722;SDS011;67811;42.656;23.394;2024-03-02T06:00:18;23.37;;;13.00;;
77722;SDS011;67811;42.656;23.394;2024-03-02T06:04:23;22.37;;;10.97;;
77722;SDS011;67811;42.656;23.394;2024-03-02T06:08:28;19.38;;;10.52;;
77722;SDS011;67811;42.656;23.394;2024-03-02T06:12:34;28.70;;;14.80;;
77722;SDS011;67811;42.656;23.394;2024-03-02T06:16:39;27.37;;;11.47;;
77722;SDS011;67811;42.656;23.394;2024-03-02T06:20:44;25.13;;;11.37;;
77722;SDS011;67811;42.656;23.394;2024-03-02T06:24:50;22.88;;;11.70;;
77722;SDS011;67811;42.656;23.394;2024-03-02T06:28:56;26.40;;;12.48;;
77722;SDS011;67811;42.656;23.394;2024-03-02T06:33:01;24.17;;;11.77;;
77722;SDS011;67811;42.656;23.394;2024-03-02T06:37:06;30.20;;;14.00;;
77722;SDS011;67811;42.656;23.394;2024-03-02T06:41:11;26.27;;;12.48;;
77722;SDS011;67811;42.656;23.394;2024-03-02T06:45:16;26.30;;;11.57;;
77722;SDS011;67811;42.656;23.394;2024-03-02T06:49:22;25.47;;;12.23;;
77722;SDS011;67811;42.656;23.394;2024-03-02T06:53:27;24.67;;;10.50;;
77722;SDS011;67811;42.656;23.394;2024-03-02T06:57:32;26.40;;;11.98;;
77722;SDS011;67811;42.656;23.394;2024-03-02T07:01:38;23.33;;;12.43;;
77722;SDS011;67811;42.656;23.394;2024-03-02T07:05:43;27.60;;;13.70;;
77722;SDS011;67811;42.656;23.394;2024-03-02T07:09:48;34.80;;;16.50;;
77722;SDS011;67811;42.656;23.394;2024-03-02T07:13:53;21.15;;;11.25;;
77722;SDS011;67811;42.656;23.394;2024-03-02T07:17:58;27.38;;;13.18;;
77722;SDS011;67811;42.656;23.394;2024-03-02T07:22:07;26.97;;;13.00;;
77722;SDS011;67811;42.656;23.394;2024-03-02T07:30:17;26.85;;;11.23;;
77722;SDS011;67811;42.656;23.394;2024-03-02T07:34:22;20.00;;;9.40;;
77722;SDS011;67811;42.656;23.394;2024-03-02T07:38:28;21.80;;;10.40;;
77722;SDS011;67811;42.656;23.394;2024-03-02T07:42:33;27.65;;;12.52;;
77722;SDS011;67811;42.656;23.394;2024-03-02T07:46:39;25.40;;;11.50;;
77722;SDS011;67811;42.656;23.394;2024-03-02T07:50:44;28.60;;;13.40;;
77722;SDS011;67811;42.656;23.394;2024-03-02T07:54:49;22.33;;;9.95;;
77722;SDS011;67811;42.656;23.394;2024-03-02T07:58:54;23.87;;;11.43;;
77722;SDS011;67811;42.656;23.394;2024-03-02T08:03:00;28.10;;;11.33;;
77722;SDS011;67811;42.656;23.394;2024-03-02T08:07:06;21.05;;;9.90;;
77722;SDS011;67811;42.656;23.394;2024-03-02T08:11:11;24.23;;;10.70;;
77722;SDS011;67811;42.656;23.394;2024-03-02T08:15:16;22.83;;;10.40;;
77722;SDS011;67811;42.656;23.394;2024-03-02T08:19:22;24.80;;;12.53;;
77722;SDS011;67811;42.656;23.394;2024-03-02T08:23:27;22.58;;;11.80;;
77722;SDS011;67811;42.656;23.394;2024-03-02T08:27:33;26.37;;;12.13;;
77722;SDS011;67811;42.656;23.394;2024-03-02T08:31:38;23.47;;;11.07;;
77722;SDS011;67811;42.656;23.394;2024-03-02T08:35:43;23.83;;;9.85;;
77722;SDS011;67811;42.656;23.394;2024-03-02T08:39:49;22.25;;;11.90;;
77722;SDS011;67811;42.656;23.394;2024-03-02T08:43:54;25.13;;;11.73;;
77722;SDS011;67811;42.656;23.394;2024-03-02T08:47:59;25.20;;;10.67;;
77722;SDS011;67811;42.656;23.394;2024-03-02T08:52:05;25.02;;;11.85;;
77722;SDS011;67811;42.656;23.394;2024-03-02T08:56:10;22.27;;;11.38;;
77722;SDS011;67811;42.656;23.394;2024-03-02T09:00:16;19.20;;;8.73;;
77722;SDS011;67811;42.656;23.394;2024-03-02T09:04:21;28.67;;;11.45;;
77722;SDS011;67811;42.656;23.394;2024-03-02T09:08:27;19.47;;;10.37;;
77722;SDS011;67811;42.656;23.394;2024-03-02T09:12:32;19.23;;;10.18;;
77722;SDS011;67811;42.656;23.394;2024-03-02T09:16:37;20.95;;;10.00;;
77722;SDS011;67811;42.656;23.394;2024-03-02T09:20:42;16.73;;;9.90;;
77722;SDS011;67811;42.656;23.394;2024-03-02T09:24:48;16.23;;;8.35;;
77722;SDS011;67811;42.656;23.394;2024-03-02T09:28:53;20.03;;;10.57;;
77722;SDS011;67811;42.656;23.394;2024-03-02T09:32:58;19.52;;;9.25;;
77722;SDS011;67811;42.656;23.394;2024-03-02T09:37:03;16.03;;;8.00;;
77722;SDS011;67811;42.656;23.394;2024-03-02T09:41:09;21.67;;;10.33;;
77722;SDS011;67811;42.656;23.394;2024-03-02T09:45:14;25.23;;;11.80;;
77722;SDS011;67811;42.656;23.394;2024-03-02T09:49:19;24.07;;;12.00;;
77722;SDS011;67811;42.656;23.394;2024-03-02T09:53:25;23.77;;;11.23;;
77722;SDS011;67811;42.656;23.394;2024-03-02T09:57:34;29.55;;;13.45;;
77722;SDS011;67811;42.656;23.394;2024-03-02T10:01:39;27.47;;;12.67;;
77722;SDS011;67811;42.656;23.394;2024-03-02T10:05:45;26.20;;;11.60;;
77722;SDS011;67811;42.656;23.394;2024-03-02T10:09:50;31.07;;;10.53;;
77722;SDS011;67811;42.656;23.394;2024-03-02T10:14:16;24.27;;;11.23;;
77722;SDS011;67811;42.656;23.394;2024-03-02T10:18:26;19.42;;;10.27;;
77722;SDS011;67811;42.656;23.394;2024-03-02T10:22:32;21.15;;;10.18;;
77722;SDS011;67811;42.656;23.394;2024-03-02T10:26:37;24.17;;;11.87;;
77722;SDS011;67811;42.656;23.394;2024-03-02T10:30:42;16.48;;;8.10;;
77722;SDS011;67811;42.656;23.394;2024-03-02T10:34:47;18.30;;;9.03;;
77722;SDS011;67811;42.656;23.394;2024-03-02T10:38:53;14.90;;;8.00;;
77722;SDS011;67811;42.656;23.394;2024-03-02T10:42:58;14.53;;;7.50;;
77722;SDS011;67811;42.656;23.394;2024-03-02T10:47:06;13.82;;;6.72;;
77722;SDS011;67811;42.656;23.394;2024-03-02T10:51:11;14.45;;;7.43;;
77722;SDS011;67811;42.656;23.394;2024-03-02T10:55:16;16.65;;;8.18;;
77722;SDS011;67811;42.656;23.394;2024-03-02T10:59:34;13.30;;;7.70;;
77722;SDS011;67811;42.656;23.394;2024-03-02T11:03:41;14.32;;;7.50;;
77722;SDS011;67811;42.656;23.394;2024-03-02T11:07:47;13.88;;;8.15;;
77722;SDS011;67811;42.656;23.394;2024-03-02T11:12:00;16.25;;;8.07;;
77722;SDS011;67811;42.656;23.394;2024-03-02T11:16:09;17.30;;;9.00;;
77722;SDS011;67811;42.656;23.394;2024-03-02T11:20:21;16.50;;;8.30;;
77722;SDS011;67811;42.656;23.394;2024-03-02T11:28:35;14.63;;;7.72;;
77722;SDS011;67811;42.656;23.394;2024-03-02T11:32:40;18.73;;;7.95;;
77722;SDS011;67811;42.656;23.394;2024-03-02T11:36:45;15.77;;;8.07;;
77722;SDS011;67811;42.656;23.394;2024-03-02T11:40:51;12.13;;;7.15;;
77722;SDS011;67811;42.656;23.394;2024-03-02T11:44:56;12.50;;;7.10;;
77722;SDS011;67811;42.656;23.394;2024-03-02T11:49:02;14.27;;;7.13;;
77722;SDS011;67811;42.656;23.394;2024-03-02T11:53:08;13.83;;;6.90;;
77722;SDS011;67811;42.656;23.394;2024-03-02T11:57:15;13.13;;;6.85;;
77722;SDS011;67811;42.656;23.394;2024-03-02T12:01:21;13.57;;;6.90;;
77722;SDS011;67811;42.656;23.394;2024-03-02T12:05:27;11.57;;;6.38;;
77722;SDS011;67811;42.656;23.394;2024-03-02T12:09:32;13.32;;;6.80;;
77722;SDS011;67811;42.656;23.394;2024-03-02T12:13:38;14.52;;;8.15;;
77722;SDS011;67811;42.656;23.394;2024-03-02T12:17:43;11.83;;;6.83;;
77722;SDS011;67811;42.656;23.394;2024-03-02T12:21:48;10.27;;;6.60;;
77722;SDS011;67811;42.656;23.394;2024-03-02T12:25:53;13.77;;;6.60;;
77722;SDS011;67811;42.656;23.394;2024-03-02T12:29:59;11.13;;;6.28;;
77722;SDS011;67811;42.656;23.394;2024-03-02T12:34:04;11.77;;;6.70;;
77722;SDS011;67811;42.656;23.394;2024-03-02T12:38:10;13.35;;;7.78;;
77722;SDS011;67811;42.656;23.394;2024-03-02T12:42:15;14.60;;;7.03;;
77722;SDS011;67811;42.656;23.394;2024-03-02T12:46:20;13.27;;;7.00;;
77722;SDS011;67811;42.656;23.394;2024-03-02T12:50:26;13.93;;;6.60;;
77722;SDS011;67811;42.656;23.394;2024-03-02T12:54:31;12.57;;;6.60;;
77722;SDS011;67811;42.656;23.394;2024-03-02T12:58:39;10.75;;;6.85;;
77722;SDS011;67811;42.656;23.394;2024-03-02T13:02:45;11.48;;;6.63;;
77722;SDS011;67811;42.656;23.394;2024-03-02T13:06:51;13.75;;;6.43;;
77722;SDS011;67811;42.656;23.394;2024-03-02T13:10:57;11.73;;;6.90;;
77722;SDS011;67811;42.656;23.394;2024-03-02T13:15:03;12.60;;;6.93;;
77722;SDS011;67811;42.656;23.394;2024-03-02T13:19:10;15.23;;;6.95;;
77722;SDS011;67811;42.656;23.394;2024-03-02T13:23:16;12.65;;;7.47;;
77722;SDS011;67811;42.656;23.394;2024-03-02T13:27:21;12.60;;;6.88;;
77722;SDS011;67811;42.656;23.394;2024-03-02T13:31:26;13.13;;;6.87;;
77722;SDS011;67811;42.656;23.394;2024-03-02T13:35:32;13.07;;;7.17;;
77722;SDS011;67811;42.656;23.394;2024-03-02T13:39:37;11.63;;;7.87;;
77722;SDS011;67811;42.656;23.394;2024-03-02T13:43:42;12.57;;;6.70;;
77722;SDS011;67811;42.656;23.394;2024-03-02T13:47:47;13.17;;;6.97;;
77722;SDS011;67811;42.656;23.394;2024-03-02T13:51:53;11.73;;;6.82;;
77722;SDS011;67811;42.656;23.394;2024-03-02T13:55:58;13.77;;;7.03;;
77722;SDS011;67811;42.656;23.394;2024-03-02T14:00:04;12.70;;;7.00;;
77722;SDS011;67811;42.656;23.394;2024-03-02T14:04:10;12.23;;;6.60;;
77722;SDS011;67811;42.656;23.394;2024-03-02T14:08:15;11.97;;;7.40;;
77722;SDS011;67811;42.656;23.394;2024-03-02T14:12:20;13.18;;;6.78;;
77722;SDS011;67811;42.656;23.394;2024-03-02T14:16:25;12.30;;;6.93;;
77722;SDS011;67811;42.656;23.394;2024-03-02T14:20:31;12.83;;;7.37;;
77722;SDS011;67811;42.656;23.394;2024-03-02T14:24:36;14.43;;;7.07;;
77722;SDS011;67811;42.656;23.394;2024-03-02T14:28:41;14.10;;;7.20;;
77722;SDS011;67811;42.656;23.394;2024-03-02T14:32:46;12.60;;;7.23;;
77722;SDS011;67811;42.656;23.394;2024-03-02T14:36:52;13.65;;;7.47;;
77722;SDS011;67811;42.656;23.394;2024-03-02T14:40:57;14.00;;;7.67;;
77722;SDS011;67811;42.656;23.394;2024-03-02T14:45:02;13.73;;;8.30;;
77722;SDS011;67811;42.656;23.394;2024-03-02T14:49:08;13.68;;;7.20;;
77722;SDS011;67811;42.656;23.394;2024-03-02T14:53:13;16.50;;;8.57;;
77722;SDS011;67811;42.656;23.394;2024-03-02T14:57:19;16.70;;;8.47;;
77722;SDS011;67811;42.656;23.394;2024-03-02T15:01:24;13.35;;;7.30;;
77722;SDS011;67811;42.656;23.394;2024-03-02T15:05:29;14.67;;;7.90;;
77722;SDS011;67811;42.656;23.394;2024-03-02T15:09:34;15.20;;;8.70;;
77722;SDS011;67811;42.656;23.394;2024-03-02T15:13:40;16.93;;;10.13;;
77722;SDS011;67811;42.656;23.394;2024-03-02T15:17:46;17.58;;;10.23;;
77722;SDS011;67811;42.656;23.394;2024-03-02T15:21:51;17.27;;;9.90;;
77722;SDS011;67811;42.656;23.394;2024-03-02T15:25:56;18.47;;;10.23;;
77722;SDS011;67811;42.656;23.394;2024-03-02T15:30:02;19.33;;;9.63;;
77722;SDS011;67811;42.656;23.394;2024-03-02T15:34:08;20.02;;;10.15;;
77722;SDS011;67811;42.656;23.394;2024-03-02T15:38:13;19.27;;;10.27;;
77722;SDS011;67811;42.656;23.394;2024-03-02T15:42:18;19.57;;;9.40;;
77722;SDS011;67811;42.656;23.394;2024-03-02T15:46:24;17.77;;;9.32;;
77722;SDS011;67811;42.656;23.394;2024-03-02T15:50:29;18.43;;;9.53;;
77722;SDS011;67811;42.656;23.394;2024-03-02T15:54:34;18.57;;;9.33;;
77722;SDS011;67811;42.656;23.394;2024-03-02T15:58:39;20.40;;;10.50;;
77722;SDS011;67811;42.656;23.394;2024-03-02T16:02:45;16.03;;;9.07;;
77722;SDS011;67811;42.656;23.394;2024-03-02T16:06:50;17.85;;;9.07;;
77722;SDS011;67811;42.656;23.394;2024-03-02T16:10:55;17.07;;;9.70;;
77722;SDS011;67811;42.656;23.394;2024-03-02T16:15:00;18.52;;;10.10;;
77722;SDS011;67811;42.656;23.394;2024-03-02T16:19:06;18.20;;;10.23;;
77722;SDS011;67811;42.656;23.394;2024-03-02T16:23:11;18.03;;;10.67;;
77722;SDS011;67811;42.656;23.394;2024-03-02T16:27:16;23.60;;;9.37;;
77722;SDS011;67811;42.656;23.394;2024-03-02T16:31:21;18.57;;;10.17;;
77722;SDS011;67811;42.656;23.394;2024-03-02T16:35:27;24.53;;;11.90;;
77722;SDS011;67811;42.656;23.394;2024-03-02T16:39:32;25.08;;;13.63;;
77722;SDS011;67811;42.656;23.394;2024-03-02T16:43:37;29.27;;;15.70;;
77722;SDS011;67811;42.656;23.394;2024-03-02T16:47:42;26.58;;;15.15;;
77722;SDS011;67811;42.656;23.394;2024-03-02T16:51:47;25.27;;;13.13;;
77722;SDS011;67811;42.656;23.394;2024-03-02T16:55:53;26.40;;;13.60;;
77722;SDS011;67811;42.656;23.394;2024-03-02T16:59:58;28.53;;;14.00;;
77722;SDS011;67811;42.656;23.394;2024-03-02T17:04:03;22.80;;;12.93;;
77722;SDS011;67811;42.656;23.394;2024-03-02T17:08:09;26.47;;;13.07;;
77722;SDS011;67811;42.656;23.394;2024-03-02T17:12:14;23.33;;;13.07;;
77722;SDS011;67811;42.656;23.394;2024-03-02T17:16:19;28.48;;;15.00;;
77722;SDS011;67811;42.656;23.394;2024-03-02T17:20:26;33.40;;;17.65;;
77722;SDS011;67811;42.656;23.394;2024-03-02T17:24:31;28.47;;;14.20;;
77722;SDS011;67811;42.656;23.394;2024-03-02T17:28:36;24.90;;;14.87;;
77722;SDS011;67811;42.656;23.394;2024-03-02T17:32:41;25.77;;;15.05;;
77722;SDS011;67811;42.656;23.394;2024-03-02T17:36:47;28.85;;;15.07;;
77722;SDS011;67811;42.656;23.394;2024-03-02T17:40:52;26.42;;;15.05;;
77722;SDS011;67811;42.656;23.394;2024-03-02T17:44:57;34.40;;;19.05;;
77722;SDS011;67811;42.656;23.394;2024-03-02T17:49:02;27.35;;;15.05;;
77722;SDS011;67811;42.656;23.394;2024-03-02T17:53:07;20.27;;;12.13;;
77722;SDS011;67811;42.656;23.394;2024-03-02T17:57:13;27.07;;;15.60;;
77722;SDS011;67811;42.656;23.394;2024-03-02T18:01:18;24.88;;;14.23;;
77722;SDS011;67811;42.656;23.394;2024-03-02T18:05:23;27.83;;;16.07;;
77722;SDS011;67811;42.656;23.394;2024-03-02T18:09:29;29.67;;;15.43;;
77722;SDS011;67811;42.656;23.394;2024-03-02T18:13:34;26.50;;;14.03;;
77722;SDS011;67811;42.656;23.394;2024-03-02T18:17:39;30.07;;;14.47;;
77722;SDS011;67811;42.656;23.394;2024-03-02T18:21:44;34.10;;;18.13;;
77722;SDS011;67811;42.656;23.394;2024-03-02T18:25:49;34.65;;;18.83;;
77722;SDS011;67811;42.656;23.394;2024-03-02T18:29:55;27.43;;;16.53;;
77722;SDS011;67811;42.656;23.394;2024-03-02T18:34:00;26.23;;;14.73;;
77722;SDS011;67811;42.656;23.394;2024-03-02T18:38:05;31.03;;;16.43;;
77722;SDS011;67811;42.656;23.394;2024-03-02T18:42:11;26.27;;;14.53;;
77722;SDS011;67811;42.656;23.394;2024-03-02T18:46:16;29.55;;;16.42;;
77722;SDS011;67811;42.656;23.394;2024-03-02T18:50:21;22.67;;;15.07;;
77722;SDS011;67811;42.656;23.394;2024-03-02T18:54:26;27.50;;;15.97;;
77722;SDS011;67811;42.656;23.394;2024-03-02T18:58:32;28.33;;;15.35;;
77722;SDS011;67811;42.656;23.394;2024-03-02T19:02:37;24.83;;;15.17;;
77722;SDS011;67811;42.656;23.394;2024-03-02T19:06:42;29.30;;;17.27;;
77722;SDS011;67811;42.656;23.394;2024-03-02T19:10:47;26.05;;;14.30;;
77722;SDS011;67811;42.656;23.394;2024-03-02T19:14:53;29.50;;;15.90;;
77722;SDS011;67811;42.656;23.394;2024-03-02T19:18:58;24.48;;;13.65;;
77722;SDS011;67811;42.656;23.394;2024-03-02T19:23:03;21.77;;;12.90;;
77722;SDS011;67811;42.656;23.394;2024-03-02T19:27:08;26.00;;;14.47;;
77722;SDS011;67811;42.656;23.394;2024-03-02T19:31:14;23.90;;;13.80;;
77722;SDS011;67811;42.656;23.394;2024-03-02T19:35:19;30.67;;;16.03;;
77722;SDS011;67811;42.656;23.394;2024-03-02T19:39:24;27.40;;;13.53;;
77722;SDS011;67811;42.656;23.394;2024-03-02T19:43:29;27.65;;;12.77;;
77722;SDS011;67811;42.656;23.394;2024-03-02T19:47:35;22.37;;;12.90;;
77722;SDS011;67811;42.656;23.394;2024-03-02T19:51:40;19.07;;;11.23;;
77722;SDS011;67811;42.656;23.394;2024-03-02T19:55:46;25.35;;;13.40;;
77722;SDS011;67811;42.656;23.394;2024-03-02T19:59:51;22.87;;;12.17;;
77722;SDS011;67811;42.656;23.394;2024-03-02T20:03:56;22.53;;;13.43;;
77722;SDS011;67811;42.656;23.394;2024-03-02T20:08:02;33.73;;;17.17;;
77722;SDS011;67811;42.656;23.394;2024-03-02T20:12:07;28.80;;;15.43;;
77722;SDS011;67811;42.656;23.394;2024-03-02T20:16:12;28.03;;;13.33;;
77722;SDS011;67811;42.656;23.394;2024-03-02T20:20:17;37.60;;;20.77;;
77722;SDS011;67811;42.656;23.394;2024-03-02T20:24:23;28.17;;;14.33;;
77722;SDS011;67811;42.656;23.394;2024-03-02T20:28:28;27.58;;;15.60;;
77722;SDS011;67811;42.656;23.394;2024-03-02T20:32:33;28.27;;;12.90;;
77722;SDS011;67811;42.656;23.394;2024-03-02T20:36:38;33.17;;;15.60;;
77722;SDS011;67811;42.656;23.394;2024-03-02T20:40:44;26.53;;;14.93;;
77722;SDS011;67811;42.656;23.394;2024-03-02T20:44:49;30.08;;;14.18;;
77722;SDS011;67811;42.656;23.394;2024-03-02T20:48:54;24.73;;;13.97;;
77722;SDS011;67811;42.656;23.394;2024-03-02T20:52:59;28.17;;;14.50;;
77722;SDS011;67811;42.656;23.394;2024-03-02T20:57:05;22.97;;;12.40;;
77722;SDS011;67811;42.656;23.394;2024-03-02T21:01:10;23.13;;;13.97;;
77722;SDS011;67811;42.656;23.394;2024-03-02T21:05:15;24.67;;;13.13;;
77722;SDS011;67811;42.656;23.394;2024-03-02T21:09:20;22.63;;;12.75;;
77722;SDS011;67811;42.656;23.394;2024-03-02T21:13:26;21.42;;;12.30;;
77722;SDS011;67811;42.656;23.394;2024-03-02T21:17:31;24.63;;;13.30;;
77722;SDS011;67811;42.656;23.394;2024-03-02T21:21:36;29.15;;;12.57;;
77722;SDS011;67811;42.656;23.394;2024-03-02T21:25:42;22.77;;;13.90;;
77722;SDS011;67811;42.656;23.394;2024-03-02T21:29:47;20.60;;;12.43;;
77722;SDS011;67811;42.656;23.394;2024-03-02T21:33:52;21.00;;;12.20;;
77722;SDS011;67811;42.656;23.394;2024-03-02T21:37:58;27.27;;;14.27;;
77722;SDS011;67811;42.656;23.394;2024-03-02T21:42:04;24.83;;;14.77;;
77722;SDS011;67811;42.656;23.394;2024-03-02T21:46:12;28.08;;;13.93;;
77722;SDS011;67811;42.656;23.394;2024-03-02T21:50:17;24.83;;;13.50;;
77722;SDS011;67811;42.656;23.394;2024-03-02T21:54:23;23.37;;;12.53;;
77722;SDS011;67811;42.656;23.394;2024-03-02T21:58:28;19.45;;;11.07;;
77722;SDS011;67811;42.656;23.394;2024-03-02T22:02:33;16.40;;;10.10;;
77722;SDS011;67811;42.656;23.394;2024-03-02T22:06:38;20.50;;;10.15;;
77722;SDS011;67811;42.656;23.394;2024-03-02T22:10:44;17.63;;;9.83;;
77722;SDS011;67811;42.656;23.394;2024-03-02T22:14:49;20.50;;;11.50;;
77722;SDS011;67811;42.656;23.394;2024-03-02T22:18:54;18.30;;;11.37;;
77722;SDS011;67811;42.656;23.394;2024-03-02T22:22:59;19.77;;;12.00;;
77722;SDS011;67811;42.656;23.394;2024-03-02T22:27:05;17.88;;;9.98;;
77722;SDS011;67811;42.656;23.394;2024-03-02T22:31:10;18.98;;;10.60;;
77722;SDS011;67811;42.656;23.394;2024-03-02T22:35:15;15.50;;;9.35;;
77722;SDS011;67811;42.656;23.394;2024-03-02T22:39:20;20.45;;;8.52;;
77722;SDS011;67811;42.656;23.394;2024-03-02T22:43:26;16.92;;;9.48;;
77722;SDS011;67811;42.656;23.394;2024-03-02T22:47:31;16.57;;;9.13;;
77722;SDS011;67811;42.656;23.394;2024-03-02T22:51:36;14.52;;;7.88;;
77722;SDS011;67811;42.656;23.394;2024-03-02T22:55:42;13.35;;;7.70;;
77722;SDS011;67811;42.656;23.394;2024-03-02T22:59:47;14.37;;;7.53;;
77722;SDS011;67811;42.656;23.394;2024-03-02T23:03:55;14.20;;;7.70;;
77722;SDS011;67811;42.656;23.394;2024-03-02T23:08:00;16.53;;;8.90;;
77722;SDS011;67811;42.656;23.394;2024-03-02T23:12:06;17.10;;;8.57;;
77722;SDS011;67811;42.656;23.394;2024-03-02T23:16:11;13.97;;;7.57;;
77722;SDS011;67811;42.656;23.394;2024-03-02T23:20:16;17.07;;;6.83;;
77722;SDS011;67811;42.656;23.394;2024-03-02T23:24:21;12.82;;;7.80;;
77722;SDS011;67811;42.656;23.394;2024-03-02T23:28:27;15.23;;;7.63;;
77722;SDS011;67811;42.656;23.394;2024-03-02T23:32:32;11.18;;;7.18;;
77722;SDS011;67811;42.656;23.394;2024-03-02T23:36:37;16.57;;;8.47;;
77722;SDS011;67811;42.656;23.394;2024-03-02T23:40:42;14.20;;;7.78;;
77722;SDS011;67811;42.656;23.394;2024-03-02T23:44:48;16.88;;;8.35;;
77722;SDS011;67811;42.656;23.394;2024-03-02T23:48:53;18.83;;;9.15;;
77722;SDS011;67811;42.656;23.394;2024-03-02T23:52:58;20.20;;;9.30;;